Aérodrome :
LOGIN :

S'inscrire | Disclaimer

   EN    FR    IT 

 










Légende :    VFR   VFR Marginal   IFR   IFR Intensif   IFR Très Intensif
Visi : 
Plafond : 
>= 8 km
>= 3000ft
5 à 8 km
1000 à 3000 ft
1500m à 5 km
500 à 1000 ft
800 à 1500m
200 à 500 ft
< 800m
< 200 ft
Symboles :   Orages  Brouillard  Fortes neiges  Fortes précipitations  Vent > 20 kt
SIGMETs :   Divers  Orages  Givrage  Turbulence  Onde Orograph.  Cendres Volcan.






- Altitude de l'aérodrome : 1 ft


EGCK - Caernarfon

DERNIER METAR :
  • 040450Z AUTO 27012KT 9999 OVC024/// 14/09 Q1020

METARs EXPIRÉS :
  • 040350Z AUTO 25012KT 9999 OVC033/// 14/10 Q1020
  • 040320Z AUTO 26011KT 9999 OVC033/// 14/09 Q1020
  • 040250Z AUTO 26012KT 9999 OVC026/// 14/10 Q1020
  • 040220Z AUTO 27014KT 9999 BKN020/// OVC035/// 14/10 Q1020

TAF TAF EGCK
Valide du 04 à 03h jusqu'au 04 à 12h UTC


040157Z 0403/0412 25012KT 9999 SCT040
PROB30
TEMPO 0403/0409 7000 -RADZ BKN014



MET'MAP, la Météo Aéronautique d'un coup d'oeil ! - Copyright ORBIFLY Décembre 2007 - Disclaimer

ORBIFLY MET'MAP TEAM :

Programmation & Développement : Alexandra Zaïnal
Sur une idée originale de : Baudouin d'Aumeries
Soutien technique & logistique : Manuel Goepfert
Assistance : Marc-Olivier Méhu




SOURCES & CREDITS :

   NOAA